Nearby METAR Reports

 

KAVP - Avoca/Wilkes B., Pennsylvania, USA
Distance from station: N 16mi, 25km
Updated: 08/22/2019 11:54pm
Overcast
Overcast
 Wind from NE
Wind: NE 3 mph , 6 km/h
Temperature: 70°F , 21°C
Dew Point: 64°F , 18°C
Humidity: 83%
Barometer: 29.98 inHg , 1015.2 hPa
Clouds: Overcast
Visibility: 10 miles , 16 km
Cloud details: Mostly cloudy 4400 ft
Overcast 10000 ft
2019/08/23 03:54 KAVP 230354Z 04003KT 10SM BKN044 OVC100 21/18 A2998 RMK AO2 SLP144 T02060178 $
KMPO - Mt. Pocono, Pennsylvania, USA
Distance from station: E 20mi, 33km
Updated: 08/23/2019 12:28am
Overcast
Overcast
 Wind from NW
Wind: NW 7 mph , 11 km/h
Temperature: 66°F , 19°C
Dew Point: 63°F , 17°C
Humidity: 88%
Barometer: 30.00 inHg , 1015.9 hPa
Clouds: Overcast
Visibility: 10 miles , 16 km
Cloud details: Few Clouds 1600 ft
Overcast 7500 ft
2019/08/23 04:28 KMPO 230428Z AUTO 31006KT 10SM FEW016 OVC075 19/17 A3000 RMK AO2 T01890172 $
 
KABE - Allentown, Pennsylvania, USA
Distance from station: SSE 36mi, 58km
Updated: 08/23/2019 12:51am
Light rain, Overcast
Light rain, Overcast
 Wind from calm
Wind: Calm
Temperature: 73°F , 23°C
Dew Point: 70°F , 21°C
Humidity: 89%
Barometer: 29.94 inHg , 1013.9 hPa
Summary: Light rain
Clouds: Overcast
Visibility: 8 miles , 13 km
Cloud details: Few Clouds 2000 ft
Mostly cloudy 6000 ft
Overcast 9000 ft
2019/08/23 04:51 KABE 230451Z 00000KT 8SM -RA FEW020 BKN060 OVC090 23/21 A2994 RMK AO2 RAB0353 SLP136 P0019 T02280211 403280222
KXLL - Allentown Queen, Pennsylvania, USA
Distance from station: SSE 41mi, 65km
Updated: 08/23/2019 12:35am
Rain, Overcast
Rain, Overcast
 Wind from calm
Wind: Calm
Temperature: 72°F , 22°C
Dew Point: 54°F , 12°C
Humidity: 53%
Barometer: 29.96 inHg , 1014.6 hPa
Summary: Rain
Clouds: Overcast
Visibility: 10 miles , 16 km
Cloud details: Partly cloudy 300 ft
Partly cloudy 1700 ft
Overcast 5000 ft
2019/08/23 04:35 KXLL 230435Z AUTO 00000KT 10SM RA SCT003 SCT017 OVC050 22/12 A2996 RMK AO2 P0006